Time;durP1;ratioP1;P1;durP2;ratioP2;P2;SDS_P1;SDS_P2;PMS_P1;PMS_P2;Temp;Humidity;BMP_temperature;BMP_pressure;BME280_temperature;BME280_humidity;BME280_pressure;Samples;Min_cycle;Max_cycle;Signal;HPM_P1;HPM_P2
2022/01/23 00:02:08;;;;;;;6.47;1.25;;;20.20;31.10;;;;;;5063963;28;20131;-60
2022/01/23 00:04:36;;;;;;;10.43;1.80;;;20.10;31.20;;;;;;5068178;28;20089;-60
2022/01/23 00:07:05;;;;;;;12.45;3.70;;;20.10;31.30;;;;;;5068627;28;20088;-60
2022/01/23 00:09:32;;;;;;;10.52;2.00;;;20.10;31.90;;;;;;5068741;28;20235;-61
2022/01/23 00:12:03;;;;;;;11.18;2.25;;;20.10;32.20;;;;;;5068579;28;20107;-59
2022/01/23 00:17:17;;;;;;;6.68;2.70;;;20.10;31.50;;;;;;5069783;28;20076;-58
2022/01/23 00:19:46;;;;;;;11.18;2.35;;;20.10;31.90;;;;;;5069011;28;20522;-59
2022/01/23 00:22:12;;;;;;;14.63;4.43;;;20.10;32.20;;;;;;5070088;28;20420;-63
2022/01/23 00:30:28;;;;;;;9.63;3.70;;;20.00;31.70;;;;;;5073092;28;20574;-63
2022/01/23 00:32:56;;;;;;;14.77;3.35;;;20.00;32.20;;;;;;5070069;28;20462;-59
2022/01/23 00:35:23;;;;;;;16.30;2.40;;;19.90;31.50;;;;;;5070045;28;20162;-60
2022/01/23 00:37:50;;;;;;;12.80;2.55;;;19.80;31.20;;;;;;5054407;28;20541;-59
2022/01/23 00:40:16;;;;;;;11.15;2.88;;;19.70;31.20;;;;;;5071021;28;20142;-57
2022/01/23 00:42:43;;;;;;;19.20;3.63;;;19.70;30.90;;;;;;5069723;28;20131;-62
2022/01/23 00:47:38;;;;;;;26.20;8.02;;;19.50;31.00;;;;;;5069469;28;20089;-59
2022/01/23 00:50:05;;;;;;;12.27;4.40;;;19.50;30.50;;;;;;5068729;28;20538;-59
2022/01/23 00:52:31;;;;;;;14.40;5.15;;;19.50;30.30;;;;;;5068915;28;20588;-58
2022/01/23 00:55:00;;;;;;;9.60;2.90;;;19.40;30.10;;;;;;5052355;28;20069;-62
2022/01/23 00:57:27;;;;;;;14.20;4.93;;;19.30;30.30;;;;;;5069058;28;20111;-62
2022/01/23 00:59:53;;;;;;;12.27;4.57;;;19.30;30.50;;;;;;5068283;28;20069;-58
2022/01/23 01:02:20;;;;;;;12.15;3.00;;;19.20;30.60;;;;;;5069379;28;20189;-59
2022/01/23 01:04:46;;;;;;;9.38;3.03;;;19.20;30.60;;;;;;5069121;28;20084;-59
2022/01/23 01:07:12;;;;;;;14.70;5.88;;;19.10;30.80;;;;;;5070407;28;20080;-57
2022/01/23 01:09:39;;;;;;;;;;;19.10;31.00;;;;;;5070106;28;20077;-58
2022/01/23 01:12:09;;;;;;;22.98;12.73;;;19.00;30.90;;;;;;5051806;28;19995;-61
2022/01/23 01:15:10;;;;;;;19.30;6.20;;;18.90;31.20;;;;;;5069911;28;20073;-58
2022/01/23 01:33:38;;;;;;;8.18;2.20;;;18.50;31.60;;;;;;5069727;28;20112;-60
2022/01/23 01:36:20;;;;;;;14.63;2.58;;;18.40;31.80;;;;;;5068529;28;20198;-64
2022/01/23 01:38:47;;;;;;;10.35;2.60;;;18.30;32.00;;;;;;5068896;28;20130;-59
2022/01/23 01:41:15;;;;;;;10.10;2.72;;;18.30;32.20;;;;;;5068966;28;20073;-57
2022/01/23 01:43:42;;;;;;;11.57;3.55;;;18.30;32.40;;;;;;5069512;28;20077;-58
2022/01/23 01:46:09;;;;;;;19.00;3.42;;;18.20;32.50;;;;;;5068484;28;20077;-60
2022/01/23 01:48:35;;;;;;;17.35;3.40;;;18.20;32.70;;;;;;5067817;28;20172;-64
2022/01/23 01:51:05;;;;;;;14.98;3.75;;;18.20;33.20;;;;;;5066008;28;20522;-59
2022/01/23 01:53:31;;;;;;;15.98;7.90;;;18.20;33.70;;;;;;5071862;28;20654;-55
2022/01/23 01:55:58;;;;;;;14.95;6.78;;;18.10;33.90;;;;;;5057273;28;20065;-61
2022/01/23 01:59:09;;;;;;;18.17;8.57;;;18.10;34.50;;;;;;5053977;28;20207;-58
2022/01/23 02:23:01;;;;;;;30.38;8.57;;;17.60;35.80;;;;;;5069628;28;20142;-62
2022/01/23 02:55:49;;;;;;;19.67;5.25;;;17.40;37.10;;;;;;5067576;28;20073;-59
2022/01/23 02:58:22;;;;;;;29.20;5.88;;;17.40;37.30;;;;;;5064624;28;20159;-59
2022/01/23 03:00:59;;;;;;;21.17;5.88;;;17.40;38.00;;;;;;5067289;28;20080;-54
2022/01/23 03:03:26;;;;;;;17.13;5.80;;;17.30;38.70;;;;;;5052059;28;20100;-61
2022/01/23 03:06:18;;;;;;;12.70;4.40;;;17.30;38.20;;;;;;5051078;28;20104;-57
2022/01/23 03:14:22;;;;;;;13.68;3.20;;;17.20;39.20;;;;;;5067438;28;20152;-53
2022/01/23 03:25:24;;;;;;;14.02;3.10;;;17.20;40.20;;;;;;5079191;28;20257;-60
2022/01/23 03:32:51;;;;;;;17.85;3.67;;;17.20;40.60;;;;;;5066906;28;20589;-57
2022/01/23 03:35:20;;;;;;;17.55;3.30;;;17.20;40.70;;;;;;5066256;28;20545;-59
2022/01/23 03:37:48;;;;;;;9.73;3.50;;;17.20;41.20;;;;;;5066734;28;20085;-60
2022/01/23 03:40:16;;;;;;;19.25;4.80;;;17.20;41.60;;;;;;5071118;28;20068;-58
2022/01/23 03:42:45;;;;;;;14.02;4.78;;;17.20;41.60;;;;;;5053970;28;20171;-59
2022/01/23 03:47:52;;;;;;;8.35;4.10;;;17.00;41.70;;;;;;5067052;28;20176;-59
2022/01/23 03:50:19;;;;;;;14.98;3.92;;;17.10;42.00;;;;;;5066316;28;20088;-63
2022/01/23 03:52:45;;;;;;;10.65;4.10;;;17.10;42.00;;;;;;5066292;28;20172;-58
2022/01/23 03:55:11;;;;;;;;;;;17.10;42.30;;;;;;5053518;28;20073;-58
2022/01/23 03:57:38;;;;;;;18.77;3.92;;;17.10;42.40;;;;;;5069516;28;19973;-56
2022/01/23 04:00:05;;;;;;;;;;;17.10;42.50;;;;;;5070864;28;20419;-59
2022/01/23 04:02:31;;;;;;;35.08;6.90;;;17.10;43.40;;;;;;5087435;28;19973;-60
2022/01/23 04:04:57;;;;;;;;;;;17.00;49.00;;;;;;5070376;28;20486;-58
2022/01/23 04:07:28;;;;;;;13.75;4.80;;;16.80;51.10;;;;;;5071079;28;20000;-59
2022/01/23 04:09:55;;;;;;;16.17;5.35;;;16.70;50.70;;;;;;5500180;22;20115;-65
2022/01/23 04:12:38;;;;;;;16.33;4.38;;;16.50;51.00;;;;;;5059356;28;20100;-65
2022/01/23 05:01:05;;;;;;;23.08;5.63;;;16.30;45.90;;;;;;5069778;28;20123;-65
2022/01/23 05:06:29;;;;;;;28.00;5.53;;;16.10;46.10;;;;;;5048567;28;20488;-65
2022/01/23 05:08:56;;;;;;;15.85;6.00;;;16.00;46.60;;;;;;5051613;28;20085;-65
2022/01/23 05:11:22;;;;;;;;;;;16.00;46.50;;;;;;5052575;28;20486;-66
2022/01/23 05:13:48;;;;;;;27.23;7.57;;;15.90;46.50;;;;;;5047403;28;19961;-66
2022/01/23 05:16:15;;;;;;;;;;;15.80;46.70;;;;;;5047531;28;20068;-65
2022/01/23 05:18:41;;;;;;;27.77;7.78;;;15.70;46.80;;;;;;5065159;28;20434;-63
2022/01/23 05:21:51;;;;;;;22.35;8.00;;;15.60;47.20;;;;;;5030426;28;20168;-66
2022/01/23 05:24:14;;;;;;;19.65;8.23;;;15.60;48.10;;;;;;5062693;28;20081;-66
2022/01/23 05:26:45;;;;;;;28.33;7.80;;;15.50;47.60;;;;;;5043810;28;20584;-65
2022/01/23 05:29:13;;;;;;;39.10;7.70;;;15.40;47.80;;;;;;5044664;28;20101;-64
2022/01/23 05:31:40;;;;;;;40.33;7.15;;;15.30;48.20;;;;;;5063321;28;20074;-67
2022/01/23 05:34:06;;;;;;;34.65;7.90;;;15.30;48.50;;;;;;5028097;28;20073;-66
2022/01/23 05:36:33;;;;;;;;;;;15.30;49.20;;;;;;5067761;28;20156;-68
2022/01/23 05:38:59;;;;;;;31.30;6.00;;;15.20;49.60;;;;;;5063168;28;20003;-66
2022/01/23 05:41:27;;;;;;;36.63;7.07;;;15.10;49.80;;;;;;5048380;28;20545;-67
2022/01/23 05:43:53;;;;;;;21.73;5.95;;;15.10;50.20;;;;;;5064142;28;20493;-58
2022/01/23 05:46:19;;;;;;;;;;;15.20;50.20;;;;;;5045879;28;20085;-61
2022/01/23 05:48:46;;;;;;;22.98;5.05;;;15.20;50.00;;;;;;5044663;28;19976;-56
2022/01/23 05:51:12;;;;;;;;;;;15.20;49.50;;;;;;5049412;28;20076;-59
2022/01/23 05:53:39;;;;;;;25.23;6.13;;;15.20;49.50;;;;;;5046501;28;19963;-58
2022/01/23 05:56:06;;;;;;;24.02;6.53;;;15.20;49.80;;;;;;5044828;28;20069;-58
2022/01/23 05:58:32;;;;;;;30.60;7.97;;;15.20;50.20;;;;;;5046903;28;20580;-56
2022/01/23 06:00:58;;;;;;;;;;;15.30;50.30;;;;;;5045862;28;20769;-57
2022/01/23 06:03:25;;;;;;;22.20;8.45;;;15.10;50.20;;;;;;5046966;28;20000;-60
2022/01/23 06:05:51;;;;;;;;;;;15.00;50.20;;;;;;5046702;28;20077;-56
2022/01/23 06:08:17;;;;;;;26.17;10.63;;;14.90;49.90;;;;;;5048732;28;19983;-56
2022/01/23 06:10:53;;;;;;;;;;;14.90;50.00;;;;;;5064790;28;20097;-51
2022/01/23 06:13:20;;;;;;;28.02;9.70;;;14.90;49.60;;;;;;5047130;28;20016;-57
2022/01/23 06:15:47;;;;;;;22.92;7.00;;;14.80;49.10;;;;;;5045719;28;20065;-53
2022/01/23 06:18:14;;;;;;;13.00;4.90;;;14.90;48.80;;;;;;5044552;28;20530;-58
2022/01/23 06:20:40;;;;;;;15.57;3.88;;;14.90;48.00;;;;;;5047562;28;20184;-56
2022/01/23 06:23:06;;;;;;;;;;;15.00;47.00;;;;;;5046345;28;20561;-56
2022/01/23 06:25:35;;;;;;;12.75;2.72;;;15.20;46.60;;;;;;5044231;28;19957;-58
2022/01/23 06:28:05;;;;;;;9.25;1.98;;;15.20;46.70;;;;;;5067337;28;20081;-55
2022/01/23 06:30:32;;;;;;;8.68;2.00;;;15.30;46.70;;;;;;5029056;28;20120;-55
2022/01/23 06:32:59;;;;;;;11.43;1.98;;;15.40;46.60;;;;;;5030932;28;20526;-57
2022/01/23 06:35:26;;;;;;;9.40;1.95;;;15.40;46.50;;;;;;5046099;28;20458;-58
2022/01/23 06:37:53;;;;;;;6.38;1.33;;;15.50;46.50;;;;;;5061419;28;20080;-58
2022/01/23 06:40:19;;;;;;;;;;;15.50;46.70;;;;;;5012888;28;20105;-56
2022/01/23 06:42:45;;;;;;;8.25;1.85;;;15.60;47.20;;;;;;5064612;28;20011;-57
2022/01/23 06:45:11;;;;;;;;;;;15.70;47.30;;;;;;5029937;28;20068;-56
2022/01/23 06:47:38;;;;;;;12.18;2.67;;;15.70;47.20;;;;;;5063064;28;20064;-57
2022/01/23 06:50:05;;;;;;;8.48;2.83;;;15.60;47.20;;;;;;5046843;28;20450;-55
2022/01/23 06:52:31;;;;;;;6.90;2.78;;;15.60;47.20;;;;;;5047477;28;20108;-56
2022/01/23 06:54:57;;;;;;;;;;;15.50;47.40;;;;;;5065131;28;20168;-55
2022/01/23 06:57:23;;;;;;;9.73;3.20;;;15.50;47.90;;;;;;5047470;28;19965;-60
2022/01/23 06:59:50;;;;;;;8.25;3.58;;;15.50;48.30;;;;;;5029754;28;20124;-56
2022/01/23 07:02:16;;;;;;;9.23;3.75;;;15.40;48.60;;;;;;5033522;28;20092;-56
2022/01/23 07:04:42;;;;;;;;;;;15.40;48.90;;;;;;5030795;28;20202;-58
2022/01/23 07:07:09;;;;;;;19.70;6.85;;;15.30;49.20;;;;;;5044762;28;20067;-55
2022/01/23 07:09:35;;;;;;;16.52;7.00;;;15.30;49.60;;;;;;5048228;28;20082;-56
2022/01/23 07:12:01;;;;;;;;;;;15.20;50.00;;;;;;5046210;28;20111;-55
2022/01/23 07:14:27;;;;;;;10.25;5.38;;;15.20;50.20;;;;;;5044069;28;19964;-55
2022/01/23 07:16:54;;;;;;;;;;;15.10;50.40;;;;;;5046885;28;20093;-55
2022/01/23 07:19:20;;;;;;;13.48;3.40;;;15.00;50.80;;;;;;5042104;28;19961;-56
2022/01/23 07:21:47;;;;;;;5.82;1.88;;;14.90;51.20;;;;;;5044142;28;20077;-60
2022/01/23 07:24:13;;;;;;;8.27;1.60;;;14.80;51.80;;;;;;5047290;28;20515;-57
2022/01/23 07:26:39;;;;;;;;;;;14.80;52.10;;;;;;5061531;28;20077;-57
2022/01/23 07:29:07;;;;;;;14.05;1.92;;;14.70;52.40;;;;;;5044673;28;19981;-61
2022/01/23 07:34:08;;;;;;;8.93;1.67;;;14.70;52.90;;;;;;5062703;28;20069;-59
2022/01/23 07:36:36;;;;;;;6.90;1.58;;;14.60;53.00;;;;;;5026801;28;20118;-55
2022/01/23 07:39:03;;;;;;;8.60;1.73;;;14.50;53.50;;;;;;5047851;28;20104;-61
2022/01/23 07:41:30;;;;;;;11.98;1.77;;;14.40;53.80;;;;;;5029980;28;20482;-56
2022/01/23 07:43:59;;;;;;;5.00;1.67;;;14.30;53.70;;;;;;5028551;28;20081;-58
2022/01/23 07:46:26;;;;;;;7.28;1.80;;;14.40;54.10;;;;;;5042738;28;20081;-60
2022/01/23 07:48:53;;;;;;;6.45;1.80;;;14.30;54.20;;;;;;5044750;28;20081;-57
2022/01/23 07:51:19;;;;;;;;;;;14.20;54.30;;;;;;5047565;28;20081;-58
2022/01/23 07:53:45;;;;;;;5.72;2.38;;;14.10;54.40;;;;;;5049445;28;20002;-56
2022/01/23 07:56:11;;;;;;;;;;;14.10;54.70;;;;;;5047300;28;20089;-57
2022/01/23 07:58:37;;;;;;;9.60;3.60;;;13.80;55.10;;;;;;5045220;28;19957;-56
2022/01/23 08:01:03;;;;;;;;;;;13.90;55.30;;;;;;5029572;28;20074;-55
2022/01/23 08:03:30;;;;;;;19.25;5.20;;;13.80;55.60;;;;;;5045144;28;20357;-55
2022/01/23 08:05:56;;;;;;;;;;;13.80;55.70;;;;;;5042915;28;20073;-55
2022/01/23 08:08:22;;;;;;;18.02;5.38;;;13.70;56.00;;;;;;5046892;28;19976;-59
2022/01/23 08:10:48;;;;;;;12.18;4.35;;;13.70;56.50;;;;;;5046140;28;20155;-59
2022/01/23 08:13:15;;;;;;;;;;;13.60;56.60;;;;;;5025961;28;20070;-57
2022/01/23 08:15:41;;;;;;;14.27;4.18;;;13.60;57.00;;;;;;5046752;28;20051;-56
2022/01/23 08:18:08;;;;;;;;;;;13.60;57.10;;;;;;5029509;28;20087;-58
2022/01/23 08:20:35;;;;;;;14.70;4.43;;;13.50;57.00;;;;;;5044665;28;19957;-59
2022/01/23 08:23:03;;;;;;;12.93;3.45;;;13.40;57.50;;;;;;5065023;28;20167;-55
2022/01/23 08:25:31;;;;;;;9.38;4.22;;;13.40;57.80;;;;;;5028544;28;20438;-58
2022/01/23 08:27:58;;;;;;;10.45;3.33;;;13.40;57.70;;;;;;5028574;28;20602;-56
2022/01/23 08:30:26;;;;;;;10.20;3.60;;;13.40;57.60;;;;;;5061413;28;20450;-57
2022/01/23 08:32:52;;;;;;;13.70;3.35;;;13.40;57.70;;;;;;5044526;28;20195;-61
2022/01/23 08:35:20;;;;;;;;;;;13.30;57.90;;;;;;5057974;28;20756;-58
2022/01/23 08:37:46;;;;;;;20.63;3.13;;;13.30;57.90;;;;;;5040798;28;20465;-61
2022/01/23 08:40:20;;;;;;;11.50;3.55;;;13.30;58.00;;;;;;5044506;28;20353;-59
2022/01/23 08:42:47;;;;;;;11.18;3.05;;;13.30;58.70;;;;;;5030033;28;20490;-57
2022/01/23 08:45:14;;;;;;;12.85;3.20;;;13.30;58.70;;;;;;5041161;28;20534;-59
2022/01/23 08:47:41;;;;;;;14.02;3.45;;;13.30;58.60;;;;;;5060945;28;20070;-55
2022/01/23 08:50:08;;;;;;;7.95;3.63;;;13.20;58.60;;;;;;5043180;28;20096;-57
2022/01/23 08:52:35;;;;;;;10.95;3.10;;;13.20;59.10;;;;;;5044867;28;20073;-57
2022/01/23 08:55:01;;;;;;;;;;;13.10;59.10;;;;;;5044223;28;20073;-60
2022/01/23 08:57:28;;;;;;;13.25;4.05;;;13.20;59.20;;;;;;5041435;28;20507;-58
2022/01/23 08:59:54;;;;;;;;;;;13.10;59.10;;;;;;5042676;28;20130;-59
2022/01/23 09:02:20;;;;;;;14.65;4.10;;;13.10;59.60;;;;;;5042442;28;19992;-56
2022/01/23 09:04:47;;;;;;;13.93;3.72;;;13.10;59.60;;;;;;5043965;28;20084;-58
2022/01/23 09:07:14;;;;;;;18.05;5.18;;;13.10;59.80;;;;;;5039174;28;20081;-56
2022/01/23 09:09:41;;;;;;;;;;;13.10;60.00;;;;;;5045632;28;20782;-56
2022/01/23 09:14:35;;;;;;;20.95;5.75;;;13.00;60.40;;;;;;5040226;28;20070;-58
2022/01/23 09:17:02;;;;;;;;;;;13.10;60.60;;;;;;5026242;28;20545;-57
2022/01/23 09:19:29;;;;;;;58.00;20.08;;;13.10;60.60;;;;;;5040809;28;19965;-61
2022/01/23 09:21:57;;;;;;;23.05;7.80;;;13.20;60.70;;;;;;5039159;28;20086;-58
2022/01/23 09:24:25;;;;;;;16.77;6.97;;;13.10;60.90;;;;;;5041890;28;20164;-59
2022/01/23 09:26:55;;;;;;;15.95;4.70;;;13.10;61.30;;;;;;5041236;28;20086;-59
2022/01/23 09:29:35;;;;;;;14.10;4.32;;;13.00;61.40;;;;;;5040074;28;21111;-56
2022/01/23 09:32:04;;;;;;;12.30;3.80;;;12.90;61.70;;;;;;5039159;28;20085;-57
2022/01/23 09:34:32;;;;;;;14.95;4.47;;;13.00;62.10;;;;;;5040299;28;20070;-57
2022/01/23 09:37:02;;;;;;;15.40;4.43;;;13.00;62.10;;;;;;5041524;28;20065;-61
2022/01/23 09:39:30;;;;;;;17.55;5.00;;;13.00;61.90;;;;;;5024010;28;20514;-55
2022/01/23 09:42:23;;;;;;;19.27;7.38;;;12.90;62.10;;;;;;5040654;28;20074;-57
2022/01/23 09:44:56;;;;;;;20.45;6.53;;;13.00;62.20;;;;;;5038676;28;20093;-56
2022/01/23 09:47:22;;;;;;;18.48;6.07;;;12.90;61.80;;;;;;5037309;28;20082;-57
2022/01/23 09:49:51;;;;;;;22.13;6.15;;;12.90;62.30;;;;;;5038401;28;20128;-61
2022/01/23 09:52:19;;;;;;;37.20;8.93;;;12.80;62.10;;;;;;5037188;28;20094;-61
2022/01/23 09:54:55;;;;;;;37.25;11.57;;;12.70;62.40;;;;;;5042763;28;20167;-58
2022/01/23 09:57:25;;;;;;;36.22;9.20;;;12.70;61.40;;;;;;5023031;28;20165;-58
2022/01/23 09:59:54;;;;;;;40.00;10.38;;;12.70;61.20;;;;;;5008812;28;20448;-56
2022/01/23 10:02:23;;;;;;;33.08;10.25;;;12.70;61.90;;;;;;5016824;28;20104;-54
2022/01/23 10:04:53;;;;;;;38.17;10.88;;;12.70;60.70;;;;;;5037351;28;20177;-57
2022/01/23 10:07:21;;;;;;;44.85;10.35;;;12.70;60.10;;;;;;5037428;28;20126;-56
2022/01/23 10:09:53;;;;;;;45.30;10.98;;;12.60;60.30;;;;;;5038772;28;20090;-58
2022/01/23 10:12:23;;;;;;;44.38;10.85;;;12.70;61.10;;;;;;5022315;28;20106;-58
2022/01/23 10:14:50;;;;;;;39.22;10.40;;;12.70;61.00;;;;;;5038037;28;20082;-57
2022/01/23 10:17:16;;;;;;;42.05;10.93;;;12.70;61.20;;;;;;5022088;28;20075;-54
2022/01/23 10:19:45;;;;;;;44.70;10.70;;;12.70;60.60;;;;;;5023362;28;20078;-56
2022/01/23 10:22:14;;;;;;;41.67;10.80;;;12.70;60.60;;;;;;5036617;28;20440;-59
2022/01/23 10:24:49;;;;;;;44.42;10.30;;;12.70;60.50;;;;;;5037156;28;20107;-56
2022/01/23 10:27:17;;;;;;;44.90;10.90;;;12.70;60.60;;;;;;5039844;28;20686;-58
2022/01/23 10:29:46;;;;;;;42.67;9.95;;;12.50;61.20;;;;;;5038837;28;20109;-58
2022/01/23 10:32:18;;;;;;;44.33;10.10;;;12.60;61.90;;;;;;5038500;28;20073;-62
2022/01/23 10:35:01;;;;;;;47.30;11.00;;;12.60;61.70;;;;;;5038381;28;20097;-61
2022/01/23 10:37:38;;;;;;;32.85;10.05;;;12.70;62.40;;;;;;5040568;28;20455;-59
2022/01/23 10:40:24;;;;;;;31.05;9.75;;;12.60;62.30;;;;;;5025800;28;20250;-56
2022/01/23 10:51:23;;;;;;;47.63;11.40;;;12.20;63.20;;;;;;5038395;28;20142;-57
2022/01/23 10:54:02;;;;;;;47.38;10.93;;;12.20;63.60;;;;;;5042129;28;20086;-60
2022/01/23 10:56:32;;;;;;;42.55;11.60;;;12.10;63.70;;;;;;5022946;28;20120;-55
2022/01/23 10:59:01;;;;;;;38.95;11.02;;;12.10;63.80;;;;;;5021519;28;20073;-58
2022/01/23 11:01:28;;;;;;;34.08;10.95;;;12.10;63.60;;;;;;5037598;28;20088;-56
2022/01/23 11:04:13;;;;;;;34.90;10.77;;;12.10;63.60;;;;;;5035773;28;20585;-58
2022/01/23 11:06:54;;;;;;;32.47;10.32;;;12.10;63.50;;;;;;5019448;28;20442;-59
2022/01/23 11:09:27;;;;;;;31.27;10.30;;;12.20;63.70;;;;;;5020727;28;20101;-58
2022/01/23 11:12:01;;;;;;;32.60;10.15;;;12.20;63.60;;;;;;5054427;28;20100;-60
2022/01/23 11:17:26;;;;;;;30.00;10.65;;;12.00;63.90;;;;;;5058713;28;20193;-58
2022/01/23 11:20:03;;;;;;;26.67;9.32;;;12.10;64.00;;;;;;5025498;28;20451;-58
2022/01/23 11:22:38;;;;;;;33.55;10.07;;;12.10;63.80;;;;;;5043125;28;20150;-58
2022/01/23 11:25:08;;;;;;;26.10;9.13;;;12.00;63.90;;;;;;5039408;28;20126;-61
2022/01/23 11:27:37;;;;;;;31.42;8.68;;;12.00;64.20;;;;;;5039377;28;20095;-56
2022/01/23 11:30:13;;;;;;;30.33;9.15;;;11.90;64.30;;;;;;5023592;28;20506;-56
2022/01/23 11:32:42;;;;;;;24.83;9.35;;;12.00;64.10;;;;;;5040532;28;20533;-56
2022/01/23 11:35:15;;;;;;;24.50;9.50;;;12.00;64.90;;;;;;5041043;28;20172;-56
2022/01/23 11:37:50;;;;;;;30.30;9.77;;;12.00;64.60;;;;;;5043257;28;20095;-60
2022/01/23 11:53:58;;;;;;;20.42;8.57;;;11.90;63.10;;;;;;5059136;28;20070;-56
2022/01/23 11:56:35;;;;;;;25.58;9.68;;;12.00;63.90;;;;;;5024046;28;20077;-59
2022/01/23 11:59:22;;;;;;;30.35;8.80;;;11.90;63.60;;;;;;5040114;28;20074;-62
2022/01/23 12:02:24;;;;;;;22.92;8.40;;;11.90;63.50;;;;;;5025679;28;20073;-55
2022/01/23 12:05:24;;;;;;;29.75;9.50;;;11.90;63.90;;;;;;5039623;28;20172;-56
2022/01/23 12:08:34;;;;;;;26.15;7.53;;;11.80;63.50;;;;;;4951072;28;20111;-57
2022/01/23 12:16:26;;;;;;;17.98;6.78;;;11.90;63.60;;;;;;4955652;28;20535;-59
2022/01/23 12:19:17;;;;;;;16.33;6.93;;;11.90;63.90;;;;;;4971299;28;20118;-56
2022/01/23 12:21:45;;;;;;;14.02;6.50;;;11.90;63.90;;;;;;4971372;28;20094;-58
2022/01/23 12:24:14;;;;;;;22.90;6.63;;;11.80;64.00;;;;;;4954747;28;20596;-56
2022/01/23 12:26:42;;;;;;;17.15;6.80;;;11.80;63.70;;;;;;4955707;28;20082;-58
2022/01/23 12:29:18;;;;;;;15.85;6.07;;;11.70;63.70;;;;;;4956325;28;20094;-57
2022/01/23 12:31:45;;;;;;;22.23;6.13;;;11.70;64.10;;;;;;4938185;28;20079;-56
2022/01/23 12:34:12;;;;;;;19.25;6.15;;;11.80;64.30;;;;;;4955502;28;20083;-56
2022/01/23 12:36:43;;;;;;;19.80;6.80;;;11.80;63.50;;;;;;4957312;28;20083;-56
2022/01/23 12:39:11;;;;;;;22.58;7.13;;;11.80;63.70;;;;;;4939404;28;20072;-57
2022/01/23 12:41:52;;;;;;;28.05;11.38;;;11.80;63.80;;;;;;4971659;28;20082;-58
2022/01/23 12:44:28;;;;;;;28.08;12.90;;;11.80;63.00;;;;;;5034526;28;20096;-57
2022/01/23 12:47:01;;;;;;;39.17;18.30;;;11.90;62.90;;;;;;5061165;28;20124;-57
2022/01/23 12:49:38;;;;;;;41.40;18.17;;;11.80;62.20;;;;;;5043751;28;20478;-58
2022/01/23 12:52:07;;;;;;;38.30;18.50;;;11.80;62.50;;;;;;5024737;28;20546;-55
2022/01/23 12:54:47;;;;;;;34.13;17.35;;;11.70;63.30;;;;;;5044802;28;20103;-58
2022/01/23 12:57:18;;;;;;;38.78;18.55;;;11.70;63.20;;;;;;5026695;28;20135;-60
2022/01/23 12:59:59;;;;;;;37.83;23.80;;;11.70;62.30;;;;;;5044839;28;20176;-58
2022/01/23 13:02:33;;;;;;;49.33;27.60;;;11.70;62.20;;;;;;5026924;28;20077;-57
2022/01/23 13:04:59;;;;;;;36.42;21.70;;;11.60;62.20;;;;;;5063841;28;20396;-57
2022/01/23 13:10:03;;;;;;;16.85;8.80;;;11.70;60.30;;;;;;5062219;28;19973;-55
2022/01/23 13:32:16;;;;;;;11.30;3.33;;;12.10;56.20;;;;;;5029216;28;20522;-56
2022/01/23 13:34:48;;;;;;;6.00;2.42;;;12.10;55.60;;;;;;5043372;28;20069;-59
2022/01/23 13:37:20;;;;;;;3.15;1.88;;;12.20;55.10;;;;;;5040814;28;20093;-60
2022/01/23 13:40:03;;;;;;;5.90;1.80;;;12.30;54.70;;;;;;5043102;28;20080;-57
2022/01/23 13:42:52;;;;;;;5.30;1.67;;;12.30;54.50;;;;;;5041034;28;20073;-55
2022/01/23 13:48:54;;;;;;;6.80;1.88;;;12.40;54.30;;;;;;5063337;28;20092;-56
2022/01/23 13:59:44;;;;;;;6.40;1.70;;;12.30;54.70;;;;;;5057559;28;20085;-56
2022/01/23 14:02:17;;;;;;;4.97;1.73;;;12.30;54.90;;;;;;5041144;28;20089;-57
2022/01/23 14:05:13;;;;;;;5.53;2.08;;;12.20;54.80;;;;;;5026917;28;20097;-57
2022/01/23 14:08:00;;;;;;;6.43;1.90;;;12.30;55.00;;;;;;5039217;28;20098;-61
2022/01/23 14:10:38;;;;;;;7.15;2.15;;;12.30;55.00;;;;;;5044709;28;20196;-56
2022/01/23 14:13:15;;;;;;;6.10;1.60;;;12.30;54.90;;;;;;5011640;28;20310;-61
2022/01/23 14:15:45;;;;;;;;;;;12.30;55.00;;;;;;5012947;28;20223;-56
2022/01/23 14:18:14;;;;;;;4.55;1.45;;;12.30;54.60;;;;;;5028201;28;19964;-56
2022/01/23 14:20:54;;;;;;;9.95;2.00;;;12.40;54.30;;;;;;5026532;28;20105;-61
2022/01/23 14:23:21;;;;;;;5.00;1.80;;;12.40;54.30;;;;;;5045194;28;20109;-60
2022/01/23 14:25:53;;;;;;;6.55;1.73;;;12.40;54.30;;;;;;5040891;28;20079;-59
2022/01/23 14:28:27;;;;;;;7.32;1.80;;;12.40;54.40;;;;;;5042868;28;20097;-55
2022/01/23 14:30:59;;;;;;;4.28;2.03;;;12.30;54.20;;;;;;5025728;28;20497;-57
2022/01/23 14:33:36;;;;;;;4.80;1.88;;;12.30;54.10;;;;;;5039459;28;20080;-56
2022/01/23 14:36:12;;;;;;;;;;;12.40;54.70;;;;;;5040536;28;20065;-56
2022/01/23 14:38:39;;;;;;;5.70;2.20;;;12.40;54.00;;;;;;5044023;28;19964;-58
2022/01/23 14:41:09;;;;;;;4.97;1.80;;;12.30;54.20;;;;;;5041684;28;20081;-59
2022/01/23 14:43:42;;;;;;;11.88;2.42;;;12.30;54.40;;;;;;5026316;28;20077;-58
2022/01/23 14:46:11;;;;;;;8.25;1.70;;;12.30;54.80;;;;;;5061911;28;20077;-56
2022/01/23 14:48:48;;;;;;;8.30;1.88;;;12.40;53.90;;;;;;5059820;28;20093;-56
2022/01/23 14:51:22;;;;;;;8.88;2.20;;;12.40;54.10;;;;;;5043019;28;20126;-57
2022/01/23 14:53:49;;;;;;;9.55;1.98;;;12.40;54.00;;;;;;5027232;28;20085;-55
2022/01/23 14:56:17;;;;;;;8.48;1.80;;;12.50;53.80;;;;;;5039223;28;20090;-58
2022/01/23 14:58:44;;;;;;;8.00;1.80;;;12.50;53.70;;;;;;5060415;28;20081;-58
2022/01/23 15:01:13;;;;;;;3.53;1.90;;;12.60;53.80;;;;;;5042077;28;20531;-58
2022/01/23 15:03:43;;;;;;;15.93;2.40;;;12.50;54.00;;;;;;5026822;28;20107;-57
2022/01/23 15:06:10;;;;;;;19.67;2.63;;;12.50;54.30;;;;;;5039734;28;20134;-58
2022/01/23 15:08:38;;;;;;;8.35;1.73;;;12.50;54.70;;;;;;5040470;28;20494;-56
2022/01/23 15:11:04;;;;;;;12.45;2.00;;;12.50;54.20;;;;;;5040885;28;20108;-57
2022/01/23 15:13:31;;;;;;;;;;;12.40;54.10;;;;;;5040369;28;20563;-54
2022/01/23 15:15:58;;;;;;;3.97;1.92;;;12.40;53.80;;;;;;5037683;28;19961;-58
2022/01/23 15:18:26;;;;;;;10.32;2.15;;;12.40;53.80;;;;;;5057885;28;20123;-56
2022/01/23 15:20:53;;;;;;;8.95;1.55;;;12.40;53.20;;;;;;5044200;28;20171;-57
2022/01/23 15:23:19;;;;;;;;;;;12.50;52.90;;;;;;5024839;28;20130;-55
2022/01/23 15:25:46;;;;;;;5.20;2.47;;;12.60;52.20;;;;;;5057295;28;20393;-58
2022/01/23 15:28:13;;;;;;;7.18;1.70;;;12.60;52.30;;;;;;5057563;28;20101;-60
2022/01/23 15:30:41;;;;;;;5.93;2.08;;;12.70;52.50;;;;;;5058345;28;20553;-58
2022/01/23 15:33:09;;;;;;;4.95;1.73;;;12.70;51.90;;;;;;5043772;28;20077;-58
2022/01/23 15:35:44;;;;;;;5.82;1.52;;;12.80;51.90;;;;;;5059219;28;20066;-58
2022/01/23 15:38:11;;;;;;;5.25;1.60;;;12.80;51.70;;;;;;5028444;28;20064;-60
2022/01/23 15:40:37;;;;;;;4.90;1.63;;;12.90;51.30;;;;;;5040048;28;20089;-58
2022/01/23 15:43:03;;;;;;;;;;;13.00;51.50;;;;;;5027082;28;20077;-57
2022/01/23 15:45:30;;;;;;;4.53;1.35;;;13.10;51.70;;;;;;5040602;28;19996;-58
2022/01/23 15:47:56;;;;;;;;;;;13.20;51.40;;;;;;5041730;28;20551;-57
2022/01/23 15:50:22;;;;;;;11.25;2.28;;;13.20;51.30;;;;;;5026698;28;20051;-56
2022/01/23 15:52:49;;;;;;;18.60;2.60;;;13.30;51.40;;;;;;5064315;28;20084;-56
2022/01/23 15:55:19;;;;;;;8.15;2.35;;;13.50;51.30;;;;;;5028459;28;20447;-57
2022/01/23 15:57:48;;;;;;;10.45;3.17;;;13.50;51.10;;;;;;5040956;28;20561;-57
2022/01/23 16:00:17;;;;;;;18.23;3.05;;;13.60;51.10;;;;;;5044030;28;20227;-57
2022/01/23 16:02:44;;;;;;;10.55;3.03;;;13.70;51.20;;;;;;5029971;28;20090;-58
2022/01/23 16:05:11;;;;;;;11.50;2.70;;;13.90;50.80;;;;;;5062500;28;20116;-59
2022/01/23 16:07:37;;;;;;;10.02;2.65;;;14.00;50.20;;;;;;5034392;28;20076;-55
2022/01/23 16:10:05;;;;;;;9.20;2.60;;;14.20;50.00;;;;;;5047266;28;20128;-57
2022/01/23 16:12:31;;;;;;;10.60;1.73;;;14.30;49.60;;;;;;5066684;28;20089;-55
2022/01/23 16:14:57;;;;;;;;;;;14.50;49.20;;;;;;5013834;28;20119;-57
2022/01/23 16:17:24;;;;;;;6.20;2.00;;;14.70;48.40;;;;;;5041944;28;20068;-57
2022/01/23 16:19:54;;;;;;;;;;;15.00;48.50;;;;;;5029892;28;20156;-62
2022/01/23 16:22:21;;;;;;;12.50;2.10;;;15.40;47.60;;;;;;5061955;28;19973;-59
2022/01/23 16:24:48;;;;;;;5.38;1.25;;;15.90;46.70;;;;;;5029935;28;20126;-63
2022/01/23 16:27:14;;;;;;;3.28;1.40;;;16.60;44.90;;;;;;5050867;28;20156;-56
2022/01/23 16:29:42;;;;;;;;;;;17.50;43.40;;;;;;5049216;28;20173;-62
2022/01/23 16:32:09;;;;;;;12.98;2.20;;;17.90;41.60;;;;;;5050092;28;19956;-57
2022/01/23 16:34:36;;;;;;;10.90;1.63;;;18.30;41.00;;;;;;5047274;28;20069;-60
2022/01/23 16:37:03;;;;;;;13.80;2.30;;;18.60;39.70;;;;;;5064180;28;20096;-60
2022/01/23 16:39:30;;;;;;;10.40;2.30;;;18.80;38.30;;;;;;5050325;28;20069;-61
2022/01/23 16:41:57;;;;;;;5.82;1.45;;;19.10;37.00;;;;;;5047123;28;20088;-62
2022/01/23 16:44:25;;;;;;;2.05;1.17;;;19.10;37.40;;;;;;5065133;28;20121;-65